Time;durP1;ratioP1;P1;durP2;ratioP2;P2;SDS_P1;SDS_P2;PMS_P1;PMS_P2;Temp;Humidity;BMP_temperature;BMP_pressure;BME280_temperature;BME280_humidity;BME280_pressure;Samples;Min_cycle;Max_cycle;Signal;HPM_P1;HPM_P2
2022/12/27 00:00:21;;;;;;;17.79;16.19;;;;;;;5.61;72.57;101632.98;484588;108;922544;-79
2022/12/27 00:01:25;;;;;;;17.66;15.99;;;;;;;5.60;72.50;101637.53;484496;108;930402;-79
2022/12/27 00:02:28;;;;;;;18.96;17.19;;;;;;;5.58;72.48;101630.56;484512;108;922530;-79
2022/12/27 00:03:32;;;;;;;17.57;16.07;;;;;;;5.57;72.37;101637.02;484995;107;930531;-79
2022/12/27 00:04:35;;;;;;;18.19;16.42;;;;;;;5.55;72.48;101630.90;484661;109;922516;-79
2022/12/27 00:05:42;;;;;;;19.05;17.35;;;;;;;5.53;72.41;101641.02;484563;109;922482;-76
2022/12/27 00:06:45;;;;;;;19.85;17.08;;;;;;;5.50;72.33;101633.22;484194;109;922834;-78
2022/12/27 00:07:48;;;;;;;18.92;17.09;;;;;;;5.50;72.33;101633.22;484643;107;922429;-79
2022/12/27 00:08:52;;;;;;;20.00;17.99;;;;;;;5.49;72.46;101642.34;484627;109;922540;-79
2022/12/27 00:09:55;;;;;;;19.04;17.34;;;;;;;5.48;72.53;101636.08;484592;109;922491;-78
2022/12/27 00:11:04;;;;;;;19.86;17.99;;;;;;;5.47;72.52;101642.48;484692;109;922802;-79
2022/12/27 00:12:08;;;;;;;19.25;17.49;;;;;;;5.48;72.65;101637.93;484499;109;922462;-80
2022/12/27 00:13:11;;;;;;;19.67;17.77;;;;;;;5.48;72.68;101644.19;484860;107;922553;-80
2022/12/27 00:14:14;;;;;;;19.01;17.09;;;;;;;5.49;72.85;101639.63;484723;109;922662;-79
2022/12/27 00:15:18;;;;;;;19.51;17.66;;;;;;;5.51;72.78;101645.75;484635;109;922682;-79
2022/12/27 00:16:21;;;;;;;19.11;17.41;;;;;;;5.51;72.76;101641.19;484575;109;922534;-79
2022/12/27 00:17:24;;;;;;;18.48;16.86;;;;;;;5.53;72.86;101632.90;484563;109;930525;-79
2022/12/27 00:18:27;;;;;;;19.55;17.66;;;;;;;5.54;72.78;101626.48;485419;107;922446;-79
2022/12/27 00:19:30;;;;;;;19.62;17.82;;;;;;;5.55;72.78;101630.90;485378;109;922659;-79
2022/12/27 00:20:34;;;;;;;19.99;18.05;;;;;;;5.56;72.79;101627.19;485303;109;922721;-77
2022/12/27 00:21:37;;;;;;;19.28;17.56;;;;;;;5.56;72.90;101619.08;485358;109;922495;-79
2022/12/27 00:22:40;;;;;;;19.86;17.84;;;;;;;5.57;72.79;101621.60;485089;108;923053;-80
2022/12/27 00:23:46;;;;;;;20.33;18.43;;;;;;;5.58;72.94;101614.34;476458;111;922535;-78
2022/12/27 00:24:49;;;;;;;20.83;18.81;;;;;;;5.59;72.85;101618.75;476250;111;923024;-78
2022/12/27 00:26:04;;;;;;;20.33;18.48;;;;;;;5.60;72.81;101629.42;476457;111;922521;-79
2022/12/27 00:27:08;;;;;;;19.93;17.82;;;;;;;5.61;72.79;101630.27;476239;111;922550;-78
2022/12/27 00:28:11;;;;;;;20.01;18.00;;;;;;;5.61;72.79;101624.86;476956;109;923217;-79
2022/12/27 00:29:14;;;;;;;19.94;18.09;;;;;;;5.61;72.79;101627.56;476398;111;922423;-78
2022/12/27 00:30:18;;;;;;;20.92;18.96;;;;;;;5.61;72.79;101628.42;476250;111;922729;-78
2022/12/27 00:31:24;;;;;;;21.36;19.23;;;;;;;5.62;72.75;101629.27;476380;111;922491;-77
2022/12/27 00:32:27;;;;;;;21.24;19.24;;;;;;;5.61;72.66;101633.83;476147;111;922450;-80
2022/12/27 00:33:32;;;;;;;21.14;19.03;;;;;;;5.59;72.61;101629.56;484150;108;922427;-78
2022/12/27 00:34:35;;;;;;;22.08;19.88;;;;;;;5.59;72.62;101624.16;485020;109;922483;-80
2022/12/27 00:35:38;;;;;;;21.90;19.87;;;;;;;5.58;72.78;101625.16;485196;109;922776;-78
2022/12/27 00:36:43;;;;;;;22.38;20.18;;;;;;;5.58;72.70;101627.86;486002;107;922111;-79
2022/12/27 00:37:46;;;;;;;23.18;21.01;;;;;;;5.58;72.68;101622.45;485776;106;922069;-78
2022/12/27 00:38:51;;;;;;;21.52;19.36;;;;;;;5.57;72.69;101612.66;477730;111;922035;-78
2022/12/27 00:39:54;;;;;;;22.35;20.06;;;;;;;5.57;72.86;101613.48;477532;109;922910;-80
2022/12/27 00:40:59;;;;;;;22.08;19.98;;;;;;;5.57;72.93;101605.38;477574;109;929784;-78
2022/12/27 00:42:02;;;;;;;21.32;19.25;;;;;;;5.58;72.89;101604.37;477656;109;921924;-79
2022/12/27 00:43:05;;;;;;;21.31;19.36;;;;;;;5.60;72.90;101606.92;481171;107;921979;-79
2022/12/27 00:44:09;;;;;;;21.86;19.77;;;;;;;5.61;72.92;101611.34;486485;109;922860;-79
2022/12/27 00:45:12;;;;;;;21.88;19.77;;;;;;;5.61;72.95;101606.78;486396;109;921944;-78
2022/12/27 00:46:16;;;;;;;21.91;20.03;;;;;;;5.60;72.86;101602.37;486412;109;924187;-79
2022/12/27 00:47:19;;;;;;;23.53;21.34;;;;;;;5.60;72.91;101596.95;486418;109;921998;-79
2022/12/27 00:48:23;;;;;;;22.60;20.36;;;;;;;5.60;72.88;101599.66;480630;108;922421;-80
2022/12/27 00:49:26;;;;;;;22.79;20.48;;;;;;;5.59;72.92;101592.55;477523;111;922018;-79
2022/12/27 00:50:29;;;;;;;21.09;19.02;;;;;;;5.61;73.06;101598.66;477583;111;923009;-79
2022/12/27 00:51:32;;;;;;;22.21;20.04;;;;;;;5.62;72.95;101596.80;477632;111;922129;-78
2022/12/27 00:52:35;;;;;;;23.90;20.09;;;;;;;5.62;72.98;101594.10;477664;111;923007;-78
2022/12/27 00:53:38;;;;;;;22.56;20.25;;;;;;;5.62;73.07;101597.66;485465;109;922185;-78
2022/12/27 00:54:42;;;;;;;22.71;20.39;;;;;;;5.63;73.06;101596.63;486121;109;922222;-80
2022/12/27 00:55:45;;;;;;;21.44;19.39;;;;;;;5.64;72.96;101592.06;484445;109;922094;-78
2022/12/27 00:56:48;;;;;;;23.51;21.04;;;;;;;5.65;73.01;101599.18;483869;110;922131;-79
2022/12/27 00:57:51;;;;;;;22.56;20.32;;;;;;;5.65;73.06;101593.77;483132;108;922234;-79
2022/12/27 00:58:56;;;;;;;22.36;20.24;;;;;;;5.65;73.01;101596.48;477641;111;922684;-79
2022/12/27 01:00:01;;;;;;;23.46;21.07;;;;;;;5.65;73.06;101585.66;477443;111;921897;-81
2022/12/27 01:01:17;;;;;;;25.02;21.72;;;;;;;5.65;73.00;101588.36;467379;113;922598;-79
2022/12/27 01:02:21;;;;;;;22.93;20.66;;;;;;;5.66;72.99;101579.24;469300;111;922624;-79
2022/12/27 01:03:24;;;;;;;25.04;21.91;;;;;;;5.67;73.17;101584.50;477400;108;923049;-78
2022/12/27 01:04:27;;;;;;;23.79;21.34;;;;;;;5.67;73.13;101586.36;476527;111;922840;-77
2022/12/27 01:05:30;;;;;;;23.60;21.21;;;;;;;5.66;72.96;101582.80;476548;111;922802;-78
2022/12/27 01:06:34;;;;;;;23.39;21.04;;;;;;;5.66;72.93;101590.06;476561;111;922475;-78
2022/12/27 01:07:37;;;;;;;22.92;20.60;;;;;;;5.64;72.93;101587.51;476417;109;922529;-79
2022/12/27 01:08:41;;;;;;;24.01;20.99;;;;;;;5.63;73.07;101587.66;484969;109;922757;-78
2022/12/27 01:09:44;;;;;;;22.79;20.21;;;;;;;5.62;72.97;101583.28;485207;109;922554;-80
2022/12/27 01:10:47;;;;;;;24.23;21.11;;;;;;;5.61;73.12;101579.72;485202;109;930474;-79
2022/12/27 01:11:50;;;;;;;26.23;23.45;;;;;;;5.62;73.17;101577.87;485383;109;922817;-79
2022/12/27 01:12:53;;;;;;;24.56;22.02;;;;;;;5.63;73.05;101568.72;485035;108;922514;-79
2022/12/27 01:13:59;;;;;;;24.17;21.71;;;;;;;5.62;73.11;101567.91;477097;108;922948;-78
2022/12/27 01:15:03;;;;;;;29.33;23.09;;;;;;;5.61;73.08;101568.91;476280;111;922509;-79
2022/12/27 01:16:10;;;;;;;28.62;22.89;;;;;;;5.61;73.07;101573.46;476327;111;922419;-79
2022/12/27 01:17:13;;;;;;;28.11;23.29;;;;;;;5.60;73.20;101574.46;476149;111;922541;-78
2022/12/27 01:18:16;;;;;;;28.69;23.81;;;;;;;5.58;73.26;101569.20;478378;108;922920;-80
2022/12/27 01:19:19;;;;;;;27.25;23.39;;;;;;;5.58;73.18;101565.64;484602;109;922509;-78
2022/12/27 01:20:23;;;;;;;31.95;26.16;;;;;;;5.58;73.31;101568.34;484521;109;922969;-79
2022/12/27 01:21:29;;;;;;;27.56;23.69;;;;;;;5.58;73.22;101573.76;484625;109;922458;-79
2022/12/27 01:22:32;;;;;;;27.82;24.04;;;;;;;5.56;73.38;101560.41;484408;109;922499;-78
2022/12/27 01:23:36;;;;;;;26.48;23.36;;;;;;;5.56;73.38;101560.41;484591;107;922665;-78
2022/12/27 01:24:39;;;;;;;30.34;24.38;;;;;;;5.56;73.49;101567.68;484475;109;922501;-79
2022/12/27 01:25:42;;;;;;;28.51;24.29;;;;;;;5.55;73.56;101558.70;484529;109;922450;-79
2022/12/27 01:26:45;;;;;;;31.71;25.96;;;;;;;5.57;73.49;101562.08;484490;109;922566;-80
2022/12/27 01:27:49;;;;;;;31.23;25.41;;;;;;;5.57;73.58;101559.37;484755;107;922462;-78
2022/12/27 01:28:53;;;;;;;32.13;24.99;;;;;;;5.56;73.61;101562.27;484586;109;922478;-79
2022/12/27 01:29:56;;;;;;;30.88;24.85;;;;;;;5.55;73.53;101569.53;484467;109;922784;-78
2022/12/27 01:31:05;;;;;;;29.27;25.39;;;;;;;5.55;73.60;101563.27;484585;109;922374;-78
2022/12/27 01:32:08;;;;;;;33.42;25.43;;;;;;;5.54;73.74;101562.42;484391;109;922576;-79
2022/12/27 01:33:11;;;;;;;29.33;25.01;;;;;;;5.55;73.70;101565.97;485216;107;922574;-77
2022/12/27 01:34:15;;;;;;;32.32;26.27;;;;;;;5.54;73.82;101575.09;484604;109;923023;-79
2022/12/27 01:35:18;;;;;;;34.49;25.45;;;;;;;5.54;73.85;101569.68;484427;109;923124;-78
2022/12/27 01:36:23;;;;;;;32.54;25.70;;;;;;;5.53;73.94;101567.98;484540;109;922350;-79
2022/12/27 01:37:27;;;;;;;30.47;25.59;;;;;;;5.52;73.89;101564.42;484426;109;922892;-78
2022/12/27 01:38:31;;;;;;;31.22;25.18;;;;;;;5.52;74.03;101555.45;484699;107;922756;-78
2022/12/27 01:39:34;;;;;;;27.77;23.96;;;;;;;5.53;74.12;101563.42;484522;109;930398;-80
2022/12/27 01:40:37;;;;;;;33.47;26.40;;;;;;;5.54;74.15;101557.01;484544;109;922751;-79
2022/12/27 01:43:03;;;;;;;31.26;24.63;;;;;;;5.56;74.30;101560.41;484588;107;922934;-77
2022/12/27 01:44:50;;;;;;;31.26;24.47;;;;;;;5.56;74.18;101551.45;484476;109;922713;-79
2022/12/27 01:45:54;;;;;;;31.56;25.15;;;;;;;5.56;74.19;101554.16;484368;109;922993;-79
2022/12/27 01:46:57;;;;;;;31.68;26.04;;;;;;;5.54;74.36;101548.04;484460;109;922471;-79
2022/12/27 01:48:18;;;;;;;29.27;24.67;;;;;;;5.53;74.33;101554.45;484810;107;922552;-78
2022/12/27 01:49:22;;;;;;;30.48;24.87;;;;;;;5.51;74.51;101538.41;484356;109;922891;-79
2022/12/27 01:50:31;;;;;;;31.40;25.37;;;;;;;5.50;74.53;101539.41;484428;109;922549;-79
2022/12/27 01:51:35;;;;;;;31.96;26.49;;;;;;;5.50;74.61;101558.34;484323;109;922786;-79
2022/12/27 01:52:53;;;;;;;29.60;25.51;;;;;;;5.50;74.62;101549.38;484528;107;922335;-77
2022/12/27 01:53:56;;;;;;;33.17;25.16;;;;;;;5.50;74.65;101546.67;484339;109;922536;-79
2022/12/27 01:55:06;;;;;;;32.39;25.97;;;;;;;5.49;74.69;101553.93;484524;109;922542;-78
2022/12/27 01:56:19;;;;;;;33.89;27.08;;;;;;;5.49;74.79;101547.67;483950;108;922564;-79
2022/12/27 01:57:22;;;;;;;30.73;25.61;;;;;;;5.51;74.93;101548.37;484322;109;930446;-79
2022/12/27 01:58:29;;;;;;;33.74;26.74;;;;;;;5.51;74.83;101542.96;484882;107;922541;-79
2022/12/27 01:59:33;;;;;;;32.51;26.60;;;;;;;5.53;74.86;101543.63;484359;109;922464;-78
2022/12/27 02:00:37;;;;;;;31.02;25.84;;;;;;;5.53;74.86;101543.63;484465;109;922965;-78
2022/12/27 02:01:45;;;;;;;31.67;26.73;;;;;;;5.54;75.03;101539.92;484358;109;922489;-79
2022/12/27 02:02:50;;;;;;;31.25;26.05;;;;;;;5.55;75.02;101536.22;484347;107;922501;-79
2022/12/27 02:03:59;;;;;;;35.60;27.31;;;;;;;5.57;75.04;101531.51;484420;109;922664;-78
2022/12/27 02:05:03;;;;;;;29.28;24.73;;;;;;;5.58;74.99;101542.15;484368;109;922457;-78
2022/12/27 02:06:10;;;;;;;32.42;26.22;;;;;;;5.58;75.09;101531.33;484377;109;922655;-77
2022/12/27 02:07:13;;;;;;;32.32;26.99;;;;;;;5.59;74.98;101537.59;484333;109;923029;-79
2022/12/27 02:08:43;;;;;;;36.99;27.67;;;;;;;5.59;75.05;101532.17;484890;107;922477;-79
2022/12/27 02:09:50;;;;;;;34.51;26.44;;;;;;;5.59;74.98;101530.33;484264;109;922506;-78
2022/12/27 02:10:55;;;;;;;36.09;27.46;;;;;;;5.60;75.08;101537.44;484309;109;923036;-79
2022/12/27 02:12:00;;;;;;;34.30;26.20;;;;;;;5.59;74.99;101533.03;484335;109;922533;-78
2022/12/27 02:13:05;;;;;;;35.74;27.65;;;;;;;5.58;75.01;101544.00;484233;107;930651;-78
2022/12/27 02:14:09;;;;;;;34.16;26.91;;;;;;;5.58;75.15;101533.18;474203;112;922560;-78
2022/12/27 02:15:13;;;;;;;34.61;27.38;;;;;;;5.58;75.25;101533.18;484286;109;930508;-77
2022/12/27 02:16:18;;;;;;;38.46;27.27;;;;;;;5.59;75.21;101534.88;474212;112;930514;-79
2022/12/27 02:17:27;;;;;;;34.17;27.09;;;;;;;5.59;75.33;101535.73;484380;109;922611;-79
2022/12/27 02:18:30;;;;;;;35.26;26.58;;;;;;;5.62;75.37;101529.17;474274;110;922376;-78
2022/12/27 02:19:43;;;;;;;35.69;27.94;;;;;;;5.62;75.21;101531.87;484575;109;922467;-78
2022/12/27 02:21:04;;;;;;;34.93;27.24;;;;;;;5.62;75.25;101540.00;484338;109;922555;-77
2022/12/27 02:24:17;;;;;;;34.27;25.64;;;;;;;5.62;75.37;101531.87;484319;109;923154;-78
2022/12/27 02:25:46;;;;;;;34.71;26.12;;;;;;;5.60;75.28;101533.88;484283;109;922506;-79
2022/12/27 02:27:05;;;;;;;39.18;28.23;;;;;;;5.58;75.34;101547.56;484284;109;922786;-78
2022/12/27 02:28:43;;;;;;;34.06;26.24;;;;;;;5.56;75.39;101546.89;485981;107;922674;-79
2022/12/27 02:29:50;;;;;;;35.72;26.65;;;;;;;5.55;75.53;101542.48;488662;108;922616;-79
2022/12/27 02:30:57;;;;;;;34.83;26.92;;;;;;;5.52;75.62;101537.38;488606;108;922446;-79
2022/12/27 02:32:38;;;;;;;36.11;27.76;;;;;;;5.52;75.58;101541.92;488640;108;922873;-78
2022/12/27 02:33:48;;;;;;;34.99;25.57;;;;;;;5.52;75.63;101536.52;484309;108;924095;-78
2022/12/27 02:35:06;;;;;;;35.26;25.52;;;;;;;5.51;75.55;101540.26;484323;109;923138;-78
2022/12/27 02:36:14;;;;;;;37.48;27.42;;;;;;;5.48;75.58;101546.81;484358;109;922802;-79
2022/12/27 02:37:20;;;;;;;31.36;25.49;;;;;;;5.46;75.67;101544.27;484373;109;922502;-79
2022/12/27 02:38:27;;;;;;;34.99;26.67;;;;;;;5.46;75.67;101546.97;484518;107;922528;-78
2022/12/27 02:39:40;;;;;;;33.31;26.68;;;;;;;5.57;75.80;101542.33;477201;110;947065;-79
2022/12/27 02:54:22;;;;;;;34.62;25.84;;;;;;;5.44;75.98;101535.48;449519;118;922378;-80
2022/12/27 02:57:16;;;;;;;33.13;25.28;;;;;;;5.44;76.23;101532.77;457439;116;922605;-78
2022/12/27 02:58:35;;;;;;;35.59;25.10;;;;;;;5.44;76.32;101535.48;451534;116;922731;-81
2022/12/27 03:04:23;;;;;;;30.84;24.02;;;;;;;5.45;76.48;101533.62;449537;118;922547;-81
2022/12/27 03:05:43;;;;;;;33.93;24.38;;;;;;;5.56;76.46;101521.69;485612;108;947791;-78
2022/12/27 03:06:58;;;;;;;32.15;25.08;;;;;;;5.42;76.41;101523.95;468755;111;922875;-78
2022/12/27 03:08:05;;;;;;;30.53;23.30;;;;;;;5.40;76.21;101530.55;474412;111;922630;-79
2022/12/27 03:15:53;;;;;;;33.48;24.28;;;;;;;5.39;76.29;101534.25;473337;112;922551;-80
2022/12/27 03:16:59;;;;;;;36.91;24.91;;;;;;;5.36;76.55;101532.70;466261;113;923177;-78
2022/12/27 03:18:13;;;;;;;30.37;23.87;;;;;;;5.48;76.65;101527.88;473304;110;947648;-79
2022/12/27 03:26:15;;;;;;;28.69;22.77;;;;;;;5.38;76.66;101514.47;463200;114;922530;-79
2022/12/27 03:27:31;;;;;;;31.18;22.96;;;;;;;5.38;76.68;101502.80;463169;114;922469;-78
2022/12/27 03:33:12;;;;;;;25.13;21.21;;;;;;;5.42;77.04;101494.20;456469;116;922797;-80
2022/12/27 03:34:37;;;;;;;30.01;22.13;;;;;;;5.44;77.03;101486.80;457035;116;922541;-79
2022/12/27 03:38:01;;;;;;;29.88;22.19;;;;;;;5.46;77.08;101492.88;457007;114;922604;-80
2022/12/27 03:38:23;;;;;;;27.49;22.33;;;;;;;5.49;77.00;101488.16;459883;112;922488;-79
2022/12/27 03:39:33;;;;;;;25.79;21.37;;;;;;;5.49;77.09;101483.61;457422;116;922521;-80
2022/12/27 03:43:39;;;;;;;29.79;21.91;;;;;;;5.51;77.05;101483.45;450113;116;922512;-81
2022/12/27 03:44:42;;;;;;;25.41;22.56;;;;;;;5.52;77.02;101485.98;449696;118;922698;-81
2022/12/27 03:46:35;;;;;;;23.73;21.32;;;;;;;5.54;76.95;101491.23;449695;116;922843;-80
2022/12/27 03:47:48;;;;;;;25.28;20.51;;;;;;;5.52;76.89;101485.98;449772;116;922504;-80
2022/12/27 03:48:58;;;;;;;23.80;21.02;;;;;;;5.49;76.88;101490.87;449581;118;922575;-80
2022/12/27 03:50:11;;;;;;;26.48;21.73;;;;;;;5.57;76.89;101490.93;475603;110;946564;-80
2022/12/27 03:51:20;;;;;;;26.26;21.18;;;;;;;5.44;76.70;101494.05;458015;115;922351;-80
2022/12/27 03:52:28;;;;;;;23.65;21.14;;;;;;;5.39;76.49;101499.09;458416;116;922436;-78
2022/12/27 03:53:38;;;;;;;29.36;22.56;;;;;;;5.39;76.49;101499.09;458810;114;922097;-79
2022/12/27 03:54:44;;;;;;;28.61;21.33;;;;;;;5.36;76.64;101497.55;458230;116;922087;-79
2022/12/27 03:55:48;;;;;;;23.00;20.42;;;;;;;5.34;76.64;101502.28;458237;114;922049;-81
2022/12/27 03:56:55;;;;;;;30.07;21.75;;;;;;;5.33;76.70;101508.69;457682;115;922488;-79
2022/12/27 03:57:58;;;;;;;24.56;20.01;;;;;;;5.34;76.74;101506.84;457368;114;922618;-79
2022/12/27 03:59:02;;;;;;;25.74;21.03;;;;;;;5.34;76.80;101496.02;457651;116;922898;-80
2022/12/27 04:00:06;;;;;;;22.55;20.32;;;;;;;5.34;76.88;101488.77;457501;114;922825;-80
2022/12/27 04:01:11;;;;;;;25.74;21.71;;;;;;;5.35;76.82;101484.17;457091;115;922676;-80
2022/12/27 04:02:14;;;;;;;27.10;21.27;;;;;;;5.35;76.89;101482.32;457663;116;923258;-80
2022/12/27 04:03:18;;;;;;;23.46;20.27;;;;;;;5.36;76.92;101481.31;452621;116;922446;-81
2022/12/27 04:04:21;;;;;;;24.55;21.84;;;;;;;5.38;77.03;101484.72;449595;118;930534;-81
2022/12/27 04:05:24;;;;;;;23.65;21.18;;;;;;;5.39;76.95;101475.61;449774;116;922610;-80
2022/12/27 04:06:28;;;;;;;22.39;19.92;;;;;;;5.40;77.08;101476.45;449653;118;922527;-82
2022/12/27 04:07:31;;;;;;;22.14;19.68;;;;;;;5.42;77.12;101479.83;449736;118;930521;-80
2022/12/27 04:34:42;;;;;;;20.87;18.23;;;;;;;5.25;77.40;101486.13;462122;114;922625;-80
2022/12/27 04:35:45;;;;;;;22.79;18.58;;;;;;;5.24;77.46;101484.44;462182;112;922577;-81
2022/12/27 04:36:48;;;;;;;22.64;20.04;;;;;;;5.23;77.62;101490.87;462403;114;922508;-80
2022/12/27 04:37:51;;;;;;;25.34;20.04;;;;;;;5.23;77.66;101482.77;461582;114;922507;-80
2022/12/27 04:38:54;;;;;;;23.94;19.49;;;;;;;5.24;77.67;101479.03;457604;116;922665;-81
2022/12/27 04:55:21;;;;;;;21.79;19.32;;;;;;;5.36;77.67;101466.95;450403;114;922595;-79
2022/12/27 04:56:24;;;;;;;24.07;20.02;;;;;;;5.34;77.52;101477.95;457495;116;922882;-80
2022/12/27 04:57:27;;;;;;;23.25;19.34;;;;;;;5.33;77.63;101472.69;457617;116;922979;-79
2022/12/27 04:58:30;;;;;;;24.29;19.87;;;;;;;5.32;77.51;101474.54;457769;115;922525;-80
2022/12/27 05:02:21;;;;;;;20.96;18.61;;;;;;;5.31;77.63;101470.13;457408;116;922583;-81
2022/12/27 05:03:24;;;;;;;28.44;19.76;;;;;;;5.31;77.58;101470.13;452432;115;922509;-81
2022/12/27 05:04:29;;;;;;;23.47;20.09;;;;;;;5.31;77.54;101472.84;449683;118;930297;-80
2022/12/27 05:05:34;;;;;;;26.24;19.94;;;;;;;5.30;77.50;101470.28;449551;116;930576;-79
2022/12/27 05:06:37;;;;;;;27.94;20.21;;;;;;;5.29;77.42;101471.31;449626;117;922395;-79
2022/12/27 05:14:34;;;;;;;25.24;19.63;;;;;;;5.32;77.58;101457.46;457428;116;922485;-80
2022/12/27 05:15:37;;;;;;;25.75;19.57;;;;;;;5.30;77.74;101449.50;457605;114;922529;-80
2022/12/27 05:16:42;;;;;;;22.54;19.56;;;;;;;5.31;77.77;101456.61;457612;115;922502;-80
2022/12/27 05:17:46;;;;;;;23.71;20.03;;;;;;;5.32;77.83;101452.91;457464;115;922776;-77
2022/12/27 05:18:51;;;;;;;27.66;19.00;;;;;;;5.33;77.96;101456.46;457561;116;922485;-81
2022/12/27 05:19:55;;;;;;;25.79;19.02;;;;;;;5.34;78.01;101463.58;457432;116;922584;-78
2022/12/27 05:21:06;;;;;;;26.14;19.31;;;;;;;5.34;78.01;101463.58;457557;116;923016;-79
2022/12/27 05:26:25;;;;;;;25.34;20.03;;;;;;;5.36;78.07;101464.23;457376;116;922898;-80
2022/12/27 05:27:29;;;;;;;23.71;18.86;;;;;;;5.36;78.04;101454.28;457433;116;922484;-80
2022/12/27 05:28:33;;;;;;;23.15;18.96;;;;;;;5.38;78.08;101451.42;458444;115;922768;-79
2022/12/27 05:29:36;;;;;;;21.57;18.78;;;;;;;5.38;78.12;101446.86;458210;115;922742;-81
2022/12/27 05:30:42;;;;;;;23.53;18.75;;;;;;;5.41;78.15;101437.56;458184;114;922910;-81
2022/12/27 05:31:45;;;;;;;21.93;19.04;;;;;;;5.44;77.98;101445.38;458001;116;922207;-79
2022/12/27 05:32:48;;;;;;;24.77;18.49;;;;;;;5.44;77.98;101445.38;458585;112;922126;-80
2022/12/27 05:33:52;;;;;;;22.87;18.66;;;;;;;5.45;78.01;101438.96;458892;112;922149;-80
2022/12/27 05:34:55;;;;;;;21.48;17.95;;;;;;;5.46;77.92;101437.92;458814;112;922171;-78
2022/12/27 05:35:59;;;;;;;23.61;18.49;;;;;;;5.45;78.01;101439.81;458872;112;922007;-78
2022/12/27 05:37:02;;;;;;;22.26;19.44;;;;;;;5.46;77.91;101446.89;458771;116;922124;-78
2022/12/27 05:38:05;;;;;;;25.22;19.30;;;;;;;5.45;77.83;101453.34;459050;115;922719;-79
2022/12/27 05:39:08;;;;;;;21.69;19.30;;;;;;;5.48;77.89;101448.59;458882;112;922157;-79
2022/12/27 05:40:12;;;;;;;21.59;18.57;;;;;;;5.47;77.87;101458.56;458687;114;921829;-78
2022/12/27 05:41:16;;;;;;;20.21;18.21;;;;;;;5.48;77.85;101457.56;458826;112;922067;-78
2022/12/27 05:42:19;;;;;;;20.36;17.61;;;;;;;5.49;77.89;101461.97;458694;116;922520;-80
2022/12/27 05:43:22;;;;;;;22.35;18.74;;;;;;;5.50;77.94;101452.84;458799;115;922013;-80
2022/12/27 05:44:26;;;;;;;20.47;18.48;;;;;;;5.52;77.83;101464.34;458831;112;922511;-79
2022/12/27 05:45:29;;;;;;;22.33;18.52;;;;;;;5.53;77.77;101462.48;458776;116;921983;-78
2022/12/27 05:46:33;;;;;;;20.70;18.48;;;;;;;5.55;77.79;101468.59;458650;115;930158;-79
2022/12/27 05:47:36;;;;;;;20.92;18.62;;;;;;;5.55;77.82;101468.59;458694;115;922119;-80
2022/12/27 05:48:39;;;;;;;23.90;18.14;;;;;;;5.55;77.75;101469.44;458758;115;922200;-78
2022/12/27 05:49:44;;;;;;;21.51;18.47;;;;;;;5.55;77.71;101468.59;458621;116;922281;-80
2022/12/27 05:50:47;;;;;;;22.41;18.35;;;;;;;5.56;77.66;101479.27;457018;114;922071;-78
2022/12/27 05:51:50;;;;;;;20.17;18.08;;;;;;;5.56;77.75;101473.85;456869;116;922235;-78
2022/12/27 05:52:55;;;;;;;19.37;17.42;;;;;;;5.58;77.75;101477.22;455682;114;922596;-81
2022/12/27 05:53:58;;;;;;;19.64;17.75;;;;;;;5.59;77.59;101472.66;448880;118;922025;-77
2022/12/27 05:55:01;;;;;;;21.91;18.95;;;;;;;5.59;77.62;101472.66;448515;116;922860;-79
2022/12/27 05:56:05;;;;;;;21.34;19.19;;;;;;;5.59;77.66;101478.92;456012;116;922720;-79
2022/12/27 05:57:08;;;;;;;19.88;17.76;;;;;;;5.60;77.59;101480.63;455903;116;922746;-79
2022/12/27 05:58:11;;;;;;;23.39;18.94;;;;;;;5.61;77.56;101485.03;456087;114;922902;-79
2022/12/27 05:59:15;;;;;;;20.96;18.71;;;;;;;5.61;77.48;101476.06;455935;116;922535;-80
2022/12/27 06:00:18;;;;;;;19.95;17.74;;;;;;;5.61;77.54;101473.36;455828;116;922601;-79
2022/12/27 06:01:22;;;;;;;21.38;18.27;;;;;;;5.62;77.49;101478.63;455846;116;930292;-79
2022/12/27 06:02:25;;;;;;;19.89;17.91;;;;;;;5.63;77.47;101472.17;455837;116;922959;-79
2022/12/27 06:03:28;;;;;;;21.39;18.49;;;;;;;5.64;77.47;101473.87;450264;114;930391;-80
2022/12/27 06:04:31;;;;;;;25.68;18.29;;;;;;;5.64;77.45;101473.87;448080;118;922482;-79
2022/12/27 06:05:35;;;;;;;21.05;18.46;;;;;;;5.66;77.43;101466.46;448122;118;922489;-82
2022/12/27 06:06:38;;;;;;;21.23;18.62;;;;;;;5.67;77.59;101465.45;448087;118;922568;-80
2022/12/27 06:07:41;;;;;;;21.00;18.67;;;;;;;5.69;77.50;101459.86;448884;114;930499;-78
2022/12/27 06:08:45;;;;;;;19.37;17.29;;;;;;;5.72;77.53;101467.67;448184;118;922412;-78
2022/12/27 06:09:48;;;;;;;21.43;18.61;;;;;;;5.73;77.55;101451.25;448172;118;922547;-80
2022/12/27 06:11:08;;;;;;;19.32;17.25;;;;;;;5.75;77.45;101456.52;448015;118;922787;-80
2022/12/27 06:12:11;;;;;;;19.13;17.18;;;;;;;5.76;77.48;101450.09;447637;118;930429;-80
2022/12/27 06:13:14;;;;;;;21.34;17.87;;;;;;;5.77;77.30;101449.09;452813;114;923308;-81
2022/12/27 06:14:17;;;;;;;19.87;17.71;;;;;;;5.76;77.29;101447.39;455796;116;922523;-80
2022/12/27 06:15:21;;;;;;;23.81;17.17;;;;;;;5.76;77.16;101452.80;455745;116;922603;-80
2022/12/27 06:16:24;;;;;;;20.09;18.14;;;;;;;5.75;77.14;101454.66;455719;116;922492;-80
2022/12/27 06:17:28;;;;;;;20.26;18.16;;;;;;;5.73;77.24;101456.66;455659;116;922978;-79
2022/12/27 06:18:33;;;;;;;20.62;17.29;;;;;;;5.74;77.26;101457.52;455915;114;922626;-78
2022/12/27 06:19:36;;;;;;;21.91;19.58;;;;;;;5.74;77.24;101450.25;455540;116;922562;-80
2022/12/27 06:20:41;;;;;;;20.05;17.95;;;;;;;5.74;77.24;101450.25;455527;116;922790;-81
2022/12/27 06:21:44;;;;;;;22.48;19.67;;;;;;;5.75;77.31;101451.09;455706;116;922727;-79
2022/12/27 06:22:47;;;;;;;19.99;18.06;;;;;;;5.76;77.23;101452.80;455270;114;922554;-81
2022/12/27 06:23:50;;;;;;;20.89;18.56;;;;;;;5.77;77.25;101440.97;448018;118;922663;-79
2022/12/27 06:24:53;;;;;;;20.20;18.04;;;;;;;5.78;77.29;101448.09;447889;118;922386;-80
2022/12/27 06:25:57;;;;;;;22.31;17.73;;;;;;;5.79;77.20;101450.61;447998;118;922550;-80
2022/12/27 06:27:00;;;;;;;19.51;17.54;;;;;;;5.79;77.20;101445.19;447947;118;922542;-80
2022/12/27 06:28:03;;;;;;;20.26;17.54;;;;;;;5.79;77.17;101445.19;451427;114;923510;-81
2022/12/27 06:29:08;;;;;;;19.95;17.16;;;;;;;5.80;77.06;101437.92;455693;116;922835;-80
2022/12/27 06:30:12;;;;;;;19.94;17.23;;;;;;;5.79;77.19;101444.34;455461;116;922513;-82
2022/12/27 06:31:17;;;;;;;18.42;16.71;;;;;;;5.79;77.04;101436.22;455650;116;922642;-81
2022/12/27 06:32:20;;;;;;;18.77;16.55;;;;;;;5.77;76.98;101439.11;455506;116;930625;-80
2022/12/27 06:33:23;;;;;;;17.68;16.01;;;;;;;5.76;76.88;101441.98;455590;114;930508;-79
2022/12/27 06:34:26;;;;;;;18.26;16.63;;;;;;;5.75;76.95;101442.98;455690;116;923341;-79
2022/12/27 06:35:29;;;;;;;18.24;16.23;;;;;;;5.75;77.05;101442.98;455699;116;922886;-79
2022/12/27 06:36:32;;;;;;;18.40;16.07;;;;;;;5.72;77.02;101443.32;455741;116;923072;-79
2022/12/27 06:37:35;;;;;;;18.70;16.92;;;;;;;5.71;76.99;101447.88;455709;116;922921;-79
2022/12/27 06:38:39;;;;;;;17.99;16.33;;;;;;;5.70;76.94;101443.47;455821;116;922567;-78
2022/12/27 06:39:42;;;;;;;17.94;16.28;;;;;;;5.69;76.94;101443.63;455715;116;922547;-78
2022/12/27 06:40:46;;;;;;;17.92;16.04;;;;;;;5.67;76.92;101446.52;455661;116;922630;-80